sensor_id;sensor_type;location;lat;lon;timestamp;P1;durP1;ratioP1;P2;durP2;ratioP2
68357;SDS011;55276;53.260;50.222;2022-11-20T00:01:15;29.67;;;14.27;;
68357;SDS011;55276;53.260;50.222;2022-11-20T00:03:43;36.50;;;14.73;;
68357;SDS011;55276;53.260;50.222;2022-11-20T00:06:10;30.83;;;13.90;;
68357;SDS011;55276;53.260;50.222;2022-11-20T00:08:38;31.08;;;14.43;;
68357;SDS011;55276;53.260;50.222;2022-11-20T00:11:05;34.60;;;15.07;;
68357;SDS011;55276;53.260;50.222;2022-11-20T00:13:36;33.60;;;15.45;;
68357;SDS011;55276;53.260;50.222;2022-11-20T00:16:03;34.10;;;15.25;;
68357;SDS011;55276;53.260;50.222;2022-11-20T00:18:30;37.72;;;16.73;;
68357;SDS011;55276;53.260;50.222;2022-11-20T00:23:32;31.25;;;14.32;;
68357;SDS011;55276;53.260;50.222;2022-11-20T00:26:08;34.65;;;14.38;;
68357;SDS011;55276;53.260;50.222;2022-11-20T00:28:36;38.10;;;15.85;;
68357;SDS011;55276;53.260;50.222;2022-11-20T00:31:03;32.22;;;13.70;;
68357;SDS011;55276;53.260;50.222;2022-11-20T00:33:31;33.60;;;14.15;;
68357;SDS011;55276;53.260;50.222;2022-11-20T00:36:06;34.92;;;14.05;;
68357;SDS011;55276;53.260;50.222;2022-11-20T00:38:34;32.60;;;14.23;;
68357;SDS011;55276;53.260;50.222;2022-11-20T00:41:02;35.45;;;14.05;;
68357;SDS011;55276;53.260;50.222;2022-11-20T00:43:32;37.95;;;14.85;;
68357;SDS011;55276;53.260;50.222;2022-11-20T00:48:35;35.70;;;15.05;;
68357;SDS011;55276;53.260;50.222;2022-11-20T00:51:01;38.65;;;16.63;;
68357;SDS011;55276;53.260;50.222;2022-11-20T00:53:27;37.10;;;15.48;;
68357;SDS011;55276;53.260;50.222;2022-11-20T00:55:57;38.20;;;15.38;;
68357;SDS011;55276;53.260;50.222;2022-11-20T00:58:32;38.10;;;16.97;;
68357;SDS011;55276;53.260;50.222;2022-11-20T01:01:04;33.35;;;14.32;;
68357;SDS011;55276;53.260;50.222;2022-11-20T01:03:34;40.25;;;14.90;;
68357;SDS011;55276;53.260;50.222;2022-11-20T01:06:02;35.15;;;15.50;;
68357;SDS011;55276;53.260;50.222;2022-11-20T01:08:34;33.95;;;14.45;;
68357;SDS011;55276;53.260;50.222;2022-11-20T01:11:01;34.65;;;13.82;;
68357;SDS011;55276;53.260;50.222;2022-11-20T01:13:29;32.45;;;13.13;;
68357;SDS011;55276;53.260;50.222;2022-11-20T01:16:09;30.45;;;13.85;;
68357;SDS011;55276;53.260;50.222;2022-11-20T01:18:38;31.65;;;13.23;;
68357;SDS011;55276;53.260;50.222;2022-11-20T01:21:10;31.63;;;13.65;;
68357;SDS011;55276;53.260;50.222;2022-11-20T01:23:42;31.70;;;13.23;;
68357;SDS011;55276;53.260;50.222;2022-11-20T01:26:10;29.65;;;12.88;;
68357;SDS011;55276;53.260;50.222;2022-11-20T01:28:38;34.70;;;14.13;;
68357;SDS011;55276;53.260;50.222;2022-11-20T01:31:13;34.47;;;14.63;;
68357;SDS011;55276;53.260;50.222;2022-11-20T01:33:51;39.88;;;15.38;;
68357;SDS011;55276;53.260;50.222;2022-11-20T01:36:19;31.85;;;13.35;;
68357;SDS011;55276;53.260;50.222;2022-11-20T01:38:46;32.58;;;14.55;;
68357;SDS011;55276;53.260;50.222;2022-11-20T01:41:14;35.63;;;14.85;;
68357;SDS011;55276;53.260;50.222;2022-11-20T01:43:59;36.13;;;13.82;;
68357;SDS011;55276;53.260;50.222;2022-11-20T01:46:26;34.93;;;14.57;;
68357;SDS011;55276;53.260;50.222;2022-11-20T01:48:57;35.67;;;15.00;;
68357;SDS011;55276;53.260;50.222;2022-11-20T01:51:40;35.75;;;15.02;;
68357;SDS011;55276;53.260;50.222;2022-11-20T01:54:21;38.65;;;15.13;;
68357;SDS011;55276;53.260;50.222;2022-11-20T01:56:56;35.72;;;14.70;;
68357;SDS011;55276;53.260;50.222;2022-11-20T02:01:51;39.55;;;15.13;;
68357;SDS011;55276;53.260;50.222;2022-11-20T02:04:17;39.45;;;15.90;;
68357;SDS011;55276;53.260;50.222;2022-11-20T02:06:52;39.73;;;15.97;;
68357;SDS011;55276;53.260;50.222;2022-11-20T02:09:25;39.38;;;16.17;;
68357;SDS011;55276;53.260;50.222;2022-11-20T02:11:52;38.88;;;16.05;;
68357;SDS011;55276;53.260;50.222;2022-11-20T02:14:19;37.80;;;14.25;;
68357;SDS011;55276;53.260;50.222;2022-11-20T02:16:47;37.25;;;17.08;;
68357;SDS011;55276;53.260;50.222;2022-11-20T02:19:35;40.47;;;16.80;;
68357;SDS011;55276;53.260;50.222;2022-11-20T02:22:12;39.03;;;15.73;;
68357;SDS011;55276;53.260;50.222;2022-11-20T02:24:44;36.58;;;16.65;;
68357;SDS011;55276;53.260;50.222;2022-11-20T02:27:15;39.85;;;16.42;;
68357;SDS011;55276;53.260;50.222;2022-11-20T02:29:58;38.13;;;16.00;;
68357;SDS011;55276;53.260;50.222;2022-11-20T02:32:47;40.47;;;16.65;;
68357;SDS011;55276;53.260;50.222;2022-11-20T02:37:50;41.22;;;16.73;;
68357;SDS011;55276;53.260;50.222;2022-11-20T02:40:19;37.22;;;15.93;;
68357;SDS011;55276;53.260;50.222;2022-11-20T02:42:45;37.83;;;17.27;;
68357;SDS011;55276;53.260;50.222;2022-11-20T02:45:11;42.65;;;16.55;;
68357;SDS011;55276;53.260;50.222;2022-11-20T02:47:37;44.88;;;16.92;;
68357;SDS011;55276;53.260;50.222;2022-11-20T02:50:04;42.15;;;16.70;;
68357;SDS011;55276;53.260;50.222;2022-11-20T02:52:31;38.05;;;15.68;;
68357;SDS011;55276;53.260;50.222;2022-11-20T02:54:57;42.50;;;17.50;;
68357;SDS011;55276;53.260;50.222;2022-11-20T02:57:26;41.60;;;17.52;;
68357;SDS011;55276;53.260;50.222;2022-11-20T02:59:52;42.63;;;18.20;;
68357;SDS011;55276;53.260;50.222;2022-11-20T03:02:18;42.45;;;18.02;;
68357;SDS011;55276;53.260;50.222;2022-11-20T03:04:44;47.30;;;19.80;;
68357;SDS011;55276;53.260;50.222;2022-11-20T03:09:40;41.97;;;17.30;;
68357;SDS011;55276;53.260;50.222;2022-11-20T03:12:12;38.25;;;16.58;;
68357;SDS011;55276;53.260;50.222;2022-11-20T03:14:41;35.50;;;16.02;;
68357;SDS011;55276;53.260;50.222;2022-11-20T03:17:07;39.80;;;16.60;;
68357;SDS011;55276;53.260;50.222;2022-11-20T03:19:33;36.78;;;15.02;;
68357;SDS011;55276;53.260;50.222;2022-11-20T03:21:59;41.67;;;16.77;;
68357;SDS011;55276;53.260;50.222;2022-11-20T03:24:26;41.78;;;17.15;;
68357;SDS011;55276;53.260;50.222;2022-11-20T03:26:52;49.30;;;17.58;;
68357;SDS011;55276;53.260;50.222;2022-11-20T03:29:18;48.97;;;19.30;;
68357;SDS011;55276;53.260;50.222;2022-11-20T03:31:44;44.55;;;18.23;;
68357;SDS011;55276;53.260;50.222;2022-11-20T03:34:32;45.67;;;18.25;;
68357;SDS011;55276;53.260;50.222;2022-11-20T03:36:58;67.32;;;19.25;;
68357;SDS011;55276;53.260;50.222;2022-11-20T03:39:25;50.25;;;19.70;;
68357;SDS011;55276;53.260;50.222;2022-11-20T03:41:51;53.95;;;18.08;;
68357;SDS011;55276;53.260;50.222;2022-11-20T03:44:17;70.35;;;18.42;;
68357;SDS011;55276;53.260;50.222;2022-11-20T03:46:47;52.55;;;19.92;;
68357;SDS011;55276;53.260;50.222;2022-11-20T03:49:13;52.33;;;18.88;;
68357;SDS011;55276;53.260;50.222;2022-11-20T03:51:39;60.10;;;19.52;;
68357;SDS011;55276;53.260;50.222;2022-11-20T03:54:06;64.85;;;19.63;;
68357;SDS011;55276;53.260;50.222;2022-11-20T03:56:34;67.75;;;18.25;;
68357;SDS011;55276;53.260;50.222;2022-11-20T03:59:02;52.28;;;19.17;;
68357;SDS011;55276;53.260;50.222;2022-11-20T04:01:32;65.32;;;20.60;;
68357;SDS011;55276;53.260;50.222;2022-11-20T04:04:02;62.83;;;19.70;;
68357;SDS011;55276;53.260;50.222;2022-11-20T04:06:29;65.18;;;18.35;;
68357;SDS011;55276;53.260;50.222;2022-11-20T04:08:59;62.40;;;20.40;;
68357;SDS011;55276;53.260;50.222;2022-11-20T04:11:29;63.88;;;20.42;;
68357;SDS011;55276;53.260;50.222;2022-11-20T04:13:57;77.47;;;19.92;;
68357;SDS011;55276;53.260;50.222;2022-11-20T04:16:25;56.92;;;18.90;;
68357;SDS011;55276;53.260;50.222;2022-11-20T04:18:54;64.20;;;18.23;;
68357;SDS011;55276;53.260;50.222;2022-11-20T04:21:22;52.83;;;19.60;;
68357;SDS011;55276;53.260;50.222;2022-11-20T04:23:49;53.75;;;20.05;;
68357;SDS011;55276;53.260;50.222;2022-11-20T04:26:18;56.08;;;20.30;;
68357;SDS011;55276;53.260;50.222;2022-11-20T04:28:45;51.40;;;19.83;;
68357;SDS011;55276;53.260;50.222;2022-11-20T04:31:12;52.72;;;19.42;;
68357;SDS011;55276;53.260;50.222;2022-11-20T04:33:39;49.55;;;19.08;;
68357;SDS011;55276;53.260;50.222;2022-11-20T04:38:39;77.05;;;19.73;;
68357;SDS011;55276;53.260;50.222;2022-11-20T04:41:06;52.80;;;19.70;;
68357;SDS011;55276;53.260;50.222;2022-11-20T04:43:33;49.30;;;18.98;;
68357;SDS011;55276;53.260;50.222;2022-11-20T04:46:00;50.58;;;18.95;;
68357;SDS011;55276;53.260;50.222;2022-11-20T04:48:26;76.40;;;20.00;;
68357;SDS011;55276;53.260;50.222;2022-11-20T04:53:21;52.25;;;19.90;;
68357;SDS011;55276;53.260;50.222;2022-11-20T04:55:48;55.88;;;19.13;;
68357;SDS011;55276;53.260;50.222;2022-11-20T04:58:14;60.45;;;19.65;;
68357;SDS011;55276;53.260;50.222;2022-11-20T05:00:40;50.45;;;19.58;;
68357;SDS011;55276;53.260;50.222;2022-11-20T05:03:06;68.60;;;20.15;;
68357;SDS011;55276;53.260;50.222;2022-11-20T05:05:33;65.32;;;18.80;;
68357;SDS011;55276;53.260;50.222;2022-11-20T05:07:59;69.60;;;20.25;;
68357;SDS011;55276;53.260;50.222;2022-11-20T05:10:26;65.32;;;21.52;;
68357;SDS011;55276;53.260;50.222;2022-11-20T05:12:53;56.88;;;20.88;;
68357;SDS011;55276;53.260;50.222;2022-11-20T05:15:22;61.92;;;20.75;;
68357;SDS011;55276;53.260;50.222;2022-11-20T05:17:49;58.63;;;21.15;;
68357;SDS011;55276;53.260;50.222;2022-11-20T05:20:16;132.45;;;22.08;;
68357;SDS011;55276;53.260;50.222;2022-11-20T05:22:43;113.53;;;23.30;;
68357;SDS011;55276;53.260;50.222;2022-11-20T05:25:09;78.95;;;22.95;;
68357;SDS011;55276;53.260;50.222;2022-11-20T05:27:39;135.50;;;25.10;;
68357;SDS011;55276;53.260;50.222;2022-11-20T05:30:05;127.07;;;24.88;;
68357;SDS011;55276;53.260;50.222;2022-11-20T05:32:32;95.90;;;23.37;;
68357;SDS011;55276;53.260;50.222;2022-11-20T05:34:58;140.68;;;22.23;;
68357;SDS011;55276;53.260;50.222;2022-11-20T05:37:27;209.52;;;27.35;;
68357;SDS011;55276;53.260;50.222;2022-11-20T05:39:53;175.35;;;25.42;;
68357;SDS011;55276;53.260;50.222;2022-11-20T05:42:19;237.48;;;26.67;;
68357;SDS011;55276;53.260;50.222;2022-11-20T05:45:02;230.63;;;26.75;;
68357;SDS011;55276;53.260;50.222;2022-11-20T05:47:33;119.65;;;21.60;;
68357;SDS011;55276;53.260;50.222;2022-11-20T05:50:00;153.75;;;24.45;;
68357;SDS011;55276;53.260;50.222;2022-11-20T05:52:29;256.58;;;27.85;;
68357;SDS011;55276;53.260;50.222;2022-11-20T05:54:56;253.30;;;27.17;;
68357;SDS011;55276;53.260;50.222;2022-11-20T05:57:22;176.05;;;25.90;;
68357;SDS011;55276;53.260;50.222;2022-11-20T05:59:48;163.57;;;25.98;;
68357;SDS011;55276;53.260;50.222;2022-11-20T06:02:14;223.63;;;29.33;;
68357;SDS011;55276;53.260;50.222;2022-11-20T06:04:40;239.30;;;29.10;;
68357;SDS011;55276;53.260;50.222;2022-11-20T06:07:06;301.23;;;30.08;;
68357;SDS011;55276;53.260;50.222;2022-11-20T06:09:33;124.53;;;22.08;;
68357;SDS011;55276;53.260;50.222;2022-11-20T06:11:59;116.80;;;22.08;;
68357;SDS011;55276;53.260;50.222;2022-11-20T06:14:25;136.32;;;23.67;;
68357;SDS011;55276;53.260;50.222;2022-11-20T06:16:51;272.63;;;28.08;;
68357;SDS011;55276;53.260;50.222;2022-11-20T06:19:17;61.03;;;18.75;;
68357;SDS011;55276;53.260;50.222;2022-11-20T06:21:43;96.75;;;20.92;;
68357;SDS011;55276;53.260;50.222;2022-11-20T06:24:10;212.68;;;27.23;;
68357;SDS011;55276;53.260;50.222;2022-11-20T06:26:36;57.35;;;20.58;;
68357;SDS011;55276;53.260;50.222;2022-11-20T06:29:02;107.18;;;20.90;;
68357;SDS011;55276;53.260;50.222;2022-11-20T06:31:28;62.28;;;18.63;;
68357;SDS011;55276;53.260;50.222;2022-11-20T06:33:55;149.02;;;21.92;;
68357;SDS011;55276;53.260;50.222;2022-11-20T06:36:21;115.68;;;20.23;;
68357;SDS011;55276;53.260;50.222;2022-11-20T06:38:50;75.13;;;21.13;;
68357;SDS011;55276;53.260;50.222;2022-11-20T06:41:18;159.45;;;23.20;;
68357;SDS011;55276;53.260;50.222;2022-11-20T06:43:45;111.70;;;20.85;;
68357;SDS011;55276;53.260;50.222;2022-11-20T06:46:12;146.32;;;20.55;;
68357;SDS011;55276;53.260;50.222;2022-11-20T06:48:39;66.35;;;18.25;;
68357;SDS011;55276;53.260;50.222;2022-11-20T06:51:06;74.18;;;17.35;;
68357;SDS011;55276;53.260;50.222;2022-11-20T06:53:34;96.57;;;19.50;;
68357;SDS011;55276;53.260;50.222;2022-11-20T06:56:08;111.72;;;19.25;;
68357;SDS011;55276;53.260;50.222;2022-11-20T06:58:34;79.38;;;20.38;;
68357;SDS011;55276;53.260;50.222;2022-11-20T07:01:02;113.90;;;20.05;;
68357;SDS011;55276;53.260;50.222;2022-11-20T07:03:30;231.82;;;26.83;;
68357;SDS011;55276;53.260;50.222;2022-11-20T07:05:56;94.78;;;20.05;;
68357;SDS011;55276;53.260;50.222;2022-11-20T07:08:24;96.18;;;20.92;;
68357;SDS011;55276;53.260;50.222;2022-11-20T07:10:50;223.27;;;24.15;;
68357;SDS011;55276;53.260;50.222;2022-11-20T07:13:16;207.80;;;23.48;;
68357;SDS011;55276;53.260;50.222;2022-11-20T07:15:43;175.30;;;25.47;;
68357;SDS011;55276;53.260;50.222;2022-11-20T07:18:09;71.00;;;19.45;;
68357;SDS011;55276;53.260;50.222;2022-11-20T07:20:35;138.43;;;20.27;;
68357;SDS011;55276;53.260;50.222;2022-11-20T07:23:01;221.90;;;25.38;;
68357;SDS011;55276;53.260;50.222;2022-11-20T07:25:27;384.73;;;35.50;;
68357;SDS011;55276;53.260;50.222;2022-11-20T07:27:57;234.32;;;24.77;;
68357;SDS011;55276;53.260;50.222;2022-11-20T07:30:24;395.38;;;35.58;;
68357;SDS011;55276;53.260;50.222;2022-11-20T07:32:51;256.00;;;26.58;;
68357;SDS011;55276;53.260;50.222;2022-11-20T07:35:18;403.95;;;36.95;;
68357;SDS011;55276;53.260;50.222;2022-11-20T07:37:45;91.43;;;18.63;;
68357;SDS011;55276;53.260;50.222;2022-11-20T07:42:46;189.57;;;22.90;;
68357;SDS011;55276;53.260;50.222;2022-11-20T07:45:17;52.75;;;18.13;;
68357;SDS011;55276;53.260;50.222;2022-11-20T07:47:44;202.25;;;24.75;;
68357;SDS011;55276;53.260;50.222;2022-11-20T07:50:10;241.73;;;24.85;;
68357;SDS011;55276;53.260;50.222;2022-11-20T07:52:37;68.00;;;19.45;;
68357;SDS011;55276;53.260;50.222;2022-11-20T07:55:03;180.18;;;25.13;;
68357;SDS011;55276;53.260;50.222;2022-11-20T07:57:30;134.03;;;23.53;;
68357;SDS011;55276;53.260;50.222;2022-11-20T07:59:56;221.98;;;25.70;;
68357;SDS011;55276;53.260;50.222;2022-11-20T08:02:22;126.78;;;22.20;;
68357;SDS011;55276;53.260;50.222;2022-11-20T08:04:48;250.07;;;27.92;;
68357;SDS011;55276;53.260;50.222;2022-11-20T08:07:14;284.75;;;28.65;;
68357;SDS011;55276;53.260;50.222;2022-11-20T08:09:40;236.93;;;26.20;;
68357;SDS011;55276;53.260;50.222;2022-11-20T08:12:07;218.15;;;26.60;;
68357;SDS011;55276;53.260;50.222;2022-11-20T08:14:53;295.33;;;29.33;;
68357;SDS011;55276;53.260;50.222;2022-11-20T08:17:28;336.80;;;30.48;;
68357;SDS011;55276;53.260;50.222;2022-11-20T08:19:53;205.38;;;24.05;;
68357;SDS011;55276;53.260;50.222;2022-11-20T08:22:20;179.82;;;24.35;;
68357;SDS011;55276;53.260;50.222;2022-11-20T08:24:46;472.67;;;44.17;;
68357;SDS011;55276;53.260;50.222;2022-11-20T08:27:15;128.60;;;20.83;;
68357;SDS011;55276;53.260;50.222;2022-11-20T08:29:41;140.38;;;21.13;;
68357;SDS011;55276;53.260;50.222;2022-11-20T08:32:07;120.90;;;18.60;;
68357;SDS011;55276;53.260;50.222;2022-11-20T08:34:33;116.00;;;18.50;;
68357;SDS011;55276;53.260;50.222;2022-11-20T08:37:01;77.95;;;17.25;;
68357;SDS011;55276;53.260;50.222;2022-11-20T08:39:27;46.38;;;15.10;;
68357;SDS011;55276;53.260;50.222;2022-11-20T08:41:54;66.47;;;16.50;;
68357;SDS011;55276;53.260;50.222;2022-11-20T08:44:20;38.35;;;15.48;;
68357;SDS011;55276;53.260;50.222;2022-11-20T08:46:46;41.17;;;14.93;;
68357;SDS011;55276;53.260;50.222;2022-11-20T08:49:13;69.50;;;17.48;;
68357;SDS011;55276;53.260;50.222;2022-11-20T08:51:40;61.65;;;16.83;;
68357;SDS011;55276;53.260;50.222;2022-11-20T08:54:06;88.32;;;17.42;;
68357;SDS011;55276;53.260;50.222;2022-11-20T08:56:33;45.28;;;14.98;;
68357;SDS011;55276;53.260;50.222;2022-11-20T08:58:59;251.23;;;25.35;;
68357;SDS011;55276;53.260;50.222;2022-11-20T09:01:26;47.53;;;16.73;;
68357;SDS011;55276;53.260;50.222;2022-11-20T09:03:52;42.77;;;16.80;;
68357;SDS011;55276;53.260;50.222;2022-11-20T09:06:22;204.45;;;22.42;;
68357;SDS011;55276;53.260;50.222;2022-11-20T09:08:51;50.17;;;17.45;;
68357;SDS011;55276;53.260;50.222;2022-11-20T09:11:18;106.15;;;20.73;;
68357;SDS011;55276;53.260;50.222;2022-11-20T09:13:45;86.53;;;18.65;;
68357;SDS011;55276;53.260;50.222;2022-11-20T09:16:11;302.30;;;29.00;;
68357;SDS011;55276;53.260;50.222;2022-11-20T09:18:37;56.83;;;18.35;;
68357;SDS011;55276;53.260;50.222;2022-11-20T09:21:05;183.30;;;21.65;;
68357;SDS011;55276;53.260;50.222;2022-11-20T09:23:35;34.67;;;13.90;;
68357;SDS011;55276;53.260;50.222;2022-11-20T09:26:03;33.40;;;13.98;;
68357;SDS011;55276;53.260;50.222;2022-11-20T09:28:34;39.13;;;16.48;;
68357;SDS011;55276;53.260;50.222;2022-11-20T09:31:04;38.47;;;15.65;;
68357;SDS011;55276;53.260;50.222;2022-11-20T09:33:31;40.78;;;15.80;;
68357;SDS011;55276;53.260;50.222;2022-11-20T09:35:57;31.58;;;13.25;;
68357;SDS011;55276;53.260;50.222;2022-11-20T09:38:23;27.83;;;12.30;;
68357;SDS011;55276;53.260;50.222;2022-11-20T09:41:02;27.23;;;12.00;;
68357;SDS011;55276;53.260;50.222;2022-11-20T09:46:29;25.10;;;11.25;;
68357;SDS011;55276;53.260;50.222;2022-11-20T09:49:14;28.48;;;13.48;;
68357;SDS011;55276;53.260;50.222;2022-11-20T09:54:53;35.08;;;14.23;;
68357;SDS011;55276;53.260;50.222;2022-11-20T09:57:21;30.48;;;12.95;;
68357;SDS011;55276;53.260;50.222;2022-11-20T10:00:00;28.42;;;12.40;;
68357;SDS011;55276;53.260;50.222;2022-11-20T10:02:28;28.83;;;12.57;;
68357;SDS011;55276;53.260;50.222;2022-11-20T10:05:26;23.38;;;10.88;;
68357;SDS011;55276;53.260;50.222;2022-11-20T10:07:55;22.63;;;10.52;;
68357;SDS011;55276;53.260;50.222;2022-11-20T10:10:42;25.33;;;11.02;;
68357;SDS011;55276;53.260;50.222;2022-11-20T10:16:10;20.25;;;9.40;;
68357;SDS011;55276;53.260;50.222;2022-11-20T10:27:03;25.98;;;11.43;;
68357;SDS011;55276;53.260;50.222;2022-11-20T10:29:38;21.77;;;10.07;;
68357;SDS011;55276;53.260;50.222;2022-11-20T10:32:11;30.17;;;12.43;;
68357;SDS011;55276;53.260;50.222;2022-11-20T10:37:12;41.67;;;16.33;;
68357;SDS011;55276;53.260;50.222;2022-11-20T10:39:52;33.92;;;15.65;;
68357;SDS011;55276;53.260;50.222;2022-11-20T10:42:30;40.10;;;17.15;;
68357;SDS011;55276;53.260;50.222;2022-11-20T10:45:50;36.87;;;15.17;;
68357;SDS011;55276;53.260;50.222;2022-11-20T10:48:33;34.45;;;14.60;;
68357;SDS011;55276;53.260;50.222;2022-11-20T10:50:57;37.70;;;15.55;;
68357;SDS011;55276;53.260;50.222;2022-11-20T10:56:29;32.42;;;14.05;;
68357;SDS011;55276;53.260;50.222;2022-11-20T10:59:03;31.95;;;15.50;;
68357;SDS011;55276;53.260;50.222;2022-11-20T11:01:30;33.50;;;14.75;;
68357;SDS011;55276;53.260;50.222;2022-11-20T11:03:56;31.55;;;15.57;;
68357;SDS011;55276;53.260;50.222;2022-11-20T11:06:36;31.33;;;14.82;;
68357;SDS011;55276;53.260;50.222;2022-11-20T11:09:11;33.45;;;15.52;;
68357;SDS011;55276;53.260;50.222;2022-11-20T11:11:42;36.92;;;17.00;;
68357;SDS011;55276;53.260;50.222;2022-11-20T11:14:11;41.25;;;18.05;;
68357;SDS011;55276;53.260;50.222;2022-11-20T11:16:49;36.95;;;17.80;;
68357;SDS011;55276;53.260;50.222;2022-11-20T11:19:16;37.45;;;16.85;;
68357;SDS011;55276;53.260;50.222;2022-11-20T11:21:46;38.53;;;17.77;;
68357;SDS011;55276;53.260;50.222;2022-11-20T11:24:23;38.45;;;17.38;;
68357;SDS011;55276;53.260;50.222;2022-11-20T11:27:02;32.47;;;16.70;;
68357;SDS011;55276;53.260;50.222;2022-11-20T11:29:36;28.80;;;13.52;;
68357;SDS011;55276;53.260;50.222;2022-11-20T11:32:06;27.10;;;11.35;;
68357;SDS011;55276;53.260;50.222;2022-11-20T11:34:33;26.85;;;12.40;;
68357;SDS011;55276;53.260;50.222;2022-11-20T11:37:00;25.20;;;12.38;;
68357;SDS011;55276;53.260;50.222;2022-11-20T11:39:29;27.27;;;13.05;;
68357;SDS011;55276;53.260;50.222;2022-11-20T11:41:58;31.13;;;13.85;;
68357;SDS011;55276;53.260;50.222;2022-11-20T11:47:22;28.25;;;12.13;;
68357;SDS011;55276;53.260;50.222;2022-11-20T12:00:36;25.75;;;12.48;;
68357;SDS011;55276;53.260;50.222;2022-11-20T12:03:14;27.25;;;12.60;;
68357;SDS011;55276;53.260;50.222;2022-11-20T12:05:49;29.38;;;14.88;;
68357;SDS011;55276;53.260;50.222;2022-11-20T12:08:23;36.83;;;15.77;;
68357;SDS011;55276;53.260;50.222;2022-11-20T12:19:04;37.97;;;16.27;;
68357;SDS011;55276;53.260;50.222;2022-11-20T12:24:38;23.13;;;10.73;;
68357;SDS011;55276;53.260;50.222;2022-11-20T12:27:23;19.45;;;9.35;;
68357;SDS011;55276;53.260;50.222;2022-11-20T12:30:04;22.50;;;10.43;;
68357;SDS011;55276;53.260;50.222;2022-11-20T12:37:48;25.15;;;11.35;;
68357;SDS011;55276;53.260;50.222;2022-11-20T12:43:23;21.02;;;10.63;;
68357;SDS011;55276;53.260;50.222;2022-11-20T12:49:02;21.10;;;9.70;;
68357;SDS011;55276;53.260;50.222;2022-11-20T12:57:15;22.13;;;10.75;;
68357;SDS011;55276;53.260;50.222;2022-11-20T13:08:20;18.55;;;8.50;;
68357;SDS011;55276;53.260;50.222;2022-11-20T13:13:36;17.77;;;9.45;;
68357;SDS011;55276;53.260;50.222;2022-11-20T13:18:53;24.48;;;10.82;;
68357;SDS011;55276;53.260;50.222;2022-11-20T13:29:40;15.45;;;7.55;;
68357;SDS011;55276;53.260;50.222;2022-11-20T13:34:38;20.67;;;10.13;;
68357;SDS011;55276;53.260;50.222;2022-11-20T13:37:04;17.90;;;9.68;;
68357;SDS011;55276;53.260;50.222;2022-11-20T13:39:31;21.55;;;10.57;;
68357;SDS011;55276;53.260;50.222;2022-11-20T13:42:03;20.13;;;10.40;;
68357;SDS011;55276;53.260;50.222;2022-11-20T13:45:00;27.73;;;12.65;;
68357;SDS011;55276;53.260;50.222;2022-11-20T13:47:33;28.60;;;12.55;;
68357;SDS011;55276;53.260;50.222;2022-11-20T13:50:03;27.35;;;13.70;;
68357;SDS011;55276;53.260;50.222;2022-11-20T14:00:28;38.55;;;18.63;;
68357;SDS011;55276;53.260;50.222;2022-11-20T14:02:59;39.47;;;18.27;;
68357;SDS011;55276;53.260;50.222;2022-11-20T14:08:04;41.45;;;18.40;;
68357;SDS011;55276;53.260;50.222;2022-11-20T14:10:36;39.03;;;19.33;;
68357;SDS011;55276;53.260;50.222;2022-11-20T14:13:37;44.67;;;19.85;;
68357;SDS011;55276;53.260;50.222;2022-11-20T14:15:57;45.63;;;20.10;;
68357;SDS011;55276;53.260;50.222;2022-11-20T14:18:25;42.85;;;20.13;;
68357;SDS011;55276;53.260;50.222;2022-11-20T14:20:52;42.20;;;19.77;;
68357;SDS011;55276;53.260;50.222;2022-11-20T14:23:28;48.53;;;21.63;;
68357;SDS011;55276;53.260;50.222;2022-11-20T14:25:54;44.25;;;20.20;;
68357;SDS011;55276;53.260;50.222;2022-11-20T14:28:28;46.10;;;21.30;;
68357;SDS011;55276;53.260;50.222;2022-11-20T14:30:56;48.03;;;21.05;;
68357;SDS011;55276;53.260;50.222;2022-11-20T14:33:23;48.67;;;21.77;;
68357;SDS011;55276;53.260;50.222;2022-11-20T14:35:52;49.20;;;21.17;;
68357;SDS011;55276;53.260;50.222;2022-11-20T14:38:27;44.17;;;21.92;;
68357;SDS011;55276;53.260;50.222;2022-11-20T14:41:05;45.30;;;21.90;;
68357;SDS011;55276;53.260;50.222;2022-11-20T14:43:40;52.28;;;22.45;;
68357;SDS011;55276;53.260;50.222;2022-11-20T14:46:35;47.38;;;21.70;;
68357;SDS011;55276;53.260;50.222;2022-11-20T14:49:03;47.25;;;20.52;;
68357;SDS011;55276;53.260;50.222;2022-11-20T14:51:38;43.47;;;19.75;;
68357;SDS011;55276;53.260;50.222;2022-11-20T14:54:09;47.20;;;20.17;;
68357;SDS011;55276;53.260;50.222;2022-11-20T14:56:56;45.08;;;20.92;;
68357;SDS011;55276;53.260;50.222;2022-11-20T14:59:25;41.90;;;18.75;;
68357;SDS011;55276;53.260;50.222;2022-11-20T15:04:22;48.78;;;19.92;;
68357;SDS011;55276;53.260;50.222;2022-11-20T15:06:50;46.50;;;19.52;;
68357;SDS011;55276;53.260;50.222;2022-11-20T15:09:19;53.72;;;19.20;;
68357;SDS011;55276;53.260;50.222;2022-11-20T15:11:59;46.78;;;20.33;;
68357;SDS011;55276;53.260;50.222;2022-11-20T15:14:28;52.28;;;20.40;;
68357;SDS011;55276;53.260;50.222;2022-11-20T15:16:55;45.78;;;20.48;;
68357;SDS011;55276;53.260;50.222;2022-11-20T15:19:24;45.45;;;20.77;;
68357;SDS011;55276;53.260;50.222;2022-11-20T15:21:52;44.47;;;18.65;;
68357;SDS011;55276;53.260;50.222;2022-11-20T15:24:18;47.10;;;20.77;;
68357;SDS011;55276;53.260;50.222;2022-11-20T15:26:45;52.92;;;19.40;;
68357;SDS011;55276;53.260;50.222;2022-11-20T15:29:12;48.42;;;20.42;;
68357;SDS011;55276;53.260;50.222;2022-11-20T15:31:40;48.45;;;19.08;;
68357;SDS011;55276;53.260;50.222;2022-11-20T15:34:11;46.08;;;20.33;;
68357;SDS011;55276;53.260;50.222;2022-11-20T15:36:39;42.03;;;19.05;;
68357;SDS011;55276;53.260;50.222;2022-11-20T15:39:06;45.88;;;19.65;;
68357;SDS011;55276;53.260;50.222;2022-11-20T15:41:37;48.25;;;18.88;;
68357;SDS011;55276;53.260;50.222;2022-11-20T15:44:03;43.97;;;18.70;;
68357;SDS011;55276;53.260;50.222;2022-11-20T15:46:35;46.35;;;18.92;;
68357;SDS011;55276;53.260;50.222;2022-11-20T15:49:03;40.92;;;19.25;;
68357;SDS011;55276;53.260;50.222;2022-11-20T15:51:31;42.78;;;18.20;;
68357;SDS011;55276;53.260;50.222;2022-11-20T15:54:21;39.83;;;19.00;;
68357;SDS011;55276;53.260;50.222;2022-11-20T15:56:48;46.25;;;18.83;;
68357;SDS011;55276;53.260;50.222;2022-11-20T15:59:17;41.90;;;19.02;;
68357;SDS011;55276;53.260;50.222;2022-11-20T16:01:44;42.28;;;19.48;;
68357;SDS011;55276;53.260;50.222;2022-11-20T16:04:11;36.78;;;18.35;;
68357;SDS011;55276;53.260;50.222;2022-11-20T16:06:38;41.20;;;18.85;;
68357;SDS011;55276;53.260;50.222;2022-11-20T16:09:05;35.03;;;17.27;;
68357;SDS011;55276;53.260;50.222;2022-11-20T16:11:33;37.67;;;18.23;;
68357;SDS011;55276;53.260;50.222;2022-11-20T16:14:02;36.88;;;17.35;;
68357;SDS011;55276;53.260;50.222;2022-11-20T16:16:47;36.55;;;17.60;;
68357;SDS011;55276;53.260;50.222;2022-11-20T16:19:13;37.25;;;17.63;;
68357;SDS011;55276;53.260;50.222;2022-11-20T16:21:41;34.38;;;16.15;;
68357;SDS011;55276;53.260;50.222;2022-11-20T16:24:11;42.47;;;16.83;;